sensor_id;sensor_type;location;lat;lon;timestamp;temperature;humidity
10030;DHT22;5055;52.054;8.524;2022-11-04T00:00:27;11.70;97.00
10030;DHT22;5055;52.054;8.524;2022-11-04T00:02:56;11.70;97.00
10030;DHT22;5055;52.054;8.524;2022-11-04T00:05:26;11.60;97.00
10030;DHT22;5055;52.054;8.524;2022-11-04T00:07:54;11.70;97.00
10030;DHT22;5055;52.054;8.524;2022-11-04T00:10:39;11.70;97.00
10030;DHT22;5055;52.054;8.524;2022-11-04T00:13:27;11.70;97.00
10030;DHT22;5055;52.054;8.524;2022-11-04T00:16:00;11.70;97.00
10030;DHT22;5055;52.054;8.524;2022-11-04T00:18:45;11.70;97.00
10030;DHT22;5055;52.054;8.524;2022-11-04T00:21:15;11.70;97.00
10030;DHT22;5055;52.054;8.524;2022-11-04T00:24:00;11.70;97.00
10030;DHT22;5055;52.054;8.524;2022-11-04T00:26:46;11.70;97.00
10030;DHT22;5055;52.054;8.524;2022-11-04T00:29:31;11.70;97.00
10030;DHT22;5055;52.054;8.524;2022-11-04T00:31:59;11.70;97.00
10030;DHT22;5055;52.054;8.524;2022-11-04T00:34:45;11.70;97.00
10030;DHT22;5055;52.054;8.524;2022-11-04T00:37:14;11.70;97.00
10030;DHT22;5055;52.054;8.524;2022-11-04T00:39:43;11.80;97.00
10030;DHT22;5055;52.054;8.524;2022-11-04T00:42:11;11.70;97.00
10030;DHT22;5055;52.054;8.524;2022-11-04T00:44:39;11.80;97.00
10030;DHT22;5055;52.054;8.524;2022-11-04T00:47:08;11.80;97.00
10030;DHT22;5055;52.054;8.524;2022-11-04T00:49:36;11.80;97.00
10030;DHT22;5055;52.054;8.524;2022-11-04T00:52:04;11.90;97.00
10030;DHT22;5055;52.054;8.524;2022-11-04T00:54:34;11.90;97.00
10030;DHT22;5055;52.054;8.524;2022-11-04T00:57:03;11.90;97.00
10030;DHT22;5055;52.054;8.524;2022-11-04T00:59:31;11.90;97.00
10030;DHT22;5055;52.054;8.524;2022-11-04T01:01:59;11.90;97.00
10030;DHT22;5055;52.054;8.524;2022-11-04T01:04:28;11.90;97.00
10030;DHT22;5055;52.054;8.524;2022-11-04T01:06:56;11.80;97.00
10030;DHT22;5055;52.054;8.524;2022-11-04T01:09:25;11.80;97.00
10030;DHT22;5055;52.054;8.524;2022-11-04T01:11:54;11.80;97.00
10030;DHT22;5055;52.054;8.524;2022-11-04T01:14:23;11.80;97.00
10030;DHT22;5055;52.054;8.524;2022-11-04T01:16:51;11.70;97.00
10030;DHT22;5055;52.054;8.524;2022-11-04T01:19:20;11.70;97.00
10030;DHT22;5055;52.054;8.524;2022-11-04T01:21:50;11.70;97.00
10030;DHT22;5055;52.054;8.524;2022-11-04T01:24:18;11.60;97.00
10030;DHT22;5055;52.054;8.524;2022-11-04T01:26:46;11.60;97.00
10030;DHT22;5055;52.054;8.524;2022-11-04T01:29:16;11.60;97.00
10030;DHT22;5055;52.054;8.524;2022-11-04T01:31:44;11.60;97.00
10030;DHT22;5055;52.054;8.524;2022-11-04T01:34:13;11.60;97.00
10030;DHT22;5055;52.054;8.524;2022-11-04T01:36:41;11.60;97.00
10030;DHT22;5055;52.054;8.524;2022-11-04T01:39:10;11.60;97.00
10030;DHT22;5055;52.054;8.524;2022-11-04T01:41:39;11.50;97.00
10030;DHT22;5055;52.054;8.524;2022-11-04T01:47:13;11.50;97.00
10030;DHT22;5055;52.054;8.524;2022-11-04T01:49:45;11.40;97.00
10030;DHT22;5055;52.054;8.524;2022-11-04T01:52:17;11.40;97.00
10030;DHT22;5055;52.054;8.524;2022-11-04T01:54:47;11.40;97.00
10030;DHT22;5055;52.054;8.524;2022-11-04T01:57:19;11.30;97.00
10030;DHT22;5055;52.054;8.524;2022-11-04T01:59:50;11.30;97.00
10030;DHT22;5055;52.054;8.524;2022-11-04T02:02:20;11.30;97.00
10030;DHT22;5055;52.054;8.524;2022-11-04T02:04:48;11.30;97.00
10030;DHT22;5055;52.054;8.524;2022-11-04T02:07:16;11.20;97.00
10030;DHT22;5055;52.054;8.524;2022-11-04T02:09:45;11.20;97.00
10030;DHT22;5055;52.054;8.524;2022-11-04T02:12:14;11.20;97.00
10030;DHT22;5055;52.054;8.524;2022-11-04T02:14:59;11.10;97.00
10030;DHT22;5055;52.054;8.524;2022-11-04T02:17:38;11.00;97.00
10030;DHT22;5055;52.054;8.524;2022-11-04T02:20:23;11.00;97.00
10030;DHT22;5055;52.054;8.524;2022-11-04T02:23:34;10.90;97.00
10030;DHT22;5055;52.054;8.524;2022-11-04T02:30:03;10.90;97.00
10030;DHT22;5055;52.054;8.524;2022-11-04T02:32:50;10.80;97.00
10030;DHT22;5055;52.054;8.524;2022-11-04T02:35:24;10.80;97.00
10030;DHT22;5055;52.054;8.524;2022-11-04T02:37:56;10.80;97.00
10030;DHT22;5055;52.054;8.524;2022-11-04T02:40:34;10.80;97.00
10030;DHT22;5055;52.054;8.524;2022-11-04T02:43:11;10.80;97.00
10030;DHT22;5055;52.054;8.524;2022-11-04T02:45:46;10.80;97.00
10030;DHT22;5055;52.054;8.524;2022-11-04T02:48:21;10.80;97.00
10030;DHT22;5055;52.054;8.524;2022-11-04T02:50:55;10.80;97.00
10030;DHT22;5055;52.054;8.524;2022-11-04T02:53:30;10.70;97.00
10030;DHT22;5055;52.054;8.524;2022-11-04T02:56:00;10.70;97.00
10030;DHT22;5055;52.054;8.524;2022-11-04T02:58:32;10.70;97.00
10030;DHT22;5055;52.054;8.524;2022-11-04T03:01:04;10.60;97.00
10030;DHT22;5055;52.054;8.524;2022-11-04T03:03:37;10.60;97.00
10030;DHT22;5055;52.054;8.524;2022-11-04T03:06:09;10.60;97.00
10030;DHT22;5055;52.054;8.524;2022-11-04T03:08:42;10.60;97.00
10030;DHT22;5055;52.054;8.524;2022-11-04T03:11:12;10.60;97.00
10030;DHT22;5055;52.054;8.524;2022-11-04T03:13:45;10.50;97.00
10030;DHT22;5055;52.054;8.524;2022-11-04T03:16:19;10.50;97.00
10030;DHT22;5055;52.054;8.524;2022-11-04T03:18:55;10.50;97.00
10030;DHT22;5055;52.054;8.524;2022-11-04T03:21:26;10.50;97.00
10030;DHT22;5055;52.054;8.524;2022-11-04T03:23:55;10.50;97.00
10030;DHT22;5055;52.054;8.524;2022-11-04T03:26:28;10.40;97.00
10030;DHT22;5055;52.054;8.524;2022-11-04T03:29:07;10.40;97.00
10030;DHT22;5055;52.054;8.524;2022-11-04T03:31:44;10.40;97.00
10030;DHT22;5055;52.054;8.524;2022-11-04T03:34:15;10.30;97.00
10030;DHT22;5055;52.054;8.524;2022-11-04T03:36:44;10.30;97.00
10030;DHT22;5055;52.054;8.524;2022-11-04T03:39:13;10.20;97.00
10030;DHT22;5055;52.054;8.524;2022-11-04T03:41:44;10.20;97.00
10030;DHT22;5055;52.054;8.524;2022-11-04T03:44:14;10.20;97.00
10030;DHT22;5055;52.054;8.524;2022-11-04T03:46:43;10.10;97.00
10030;DHT22;5055;52.054;8.524;2022-11-04T03:49:12;10.10;97.00
10030;DHT22;5055;52.054;8.524;2022-11-04T03:51:41;10.10;97.00
10030;DHT22;5055;52.054;8.524;2022-11-04T03:54:09;10.10;97.00
10030;DHT22;5055;52.054;8.524;2022-11-04T03:57:07;10.10;97.00
10030;DHT22;5055;52.054;8.524;2022-11-04T04:00:03;10.10;97.00
10030;DHT22;5055;52.054;8.524;2022-11-04T04:05:28;10.10;97.00
10030;DHT22;5055;52.054;8.524;2022-11-04T04:08:04;10.10;97.00
10030;DHT22;5055;52.054;8.524;2022-11-04T04:10:39;10.10;97.00
10030;DHT22;5055;52.054;8.524;2022-11-04T04:13:29;10.10;97.00
10030;DHT22;5055;52.054;8.524;2022-11-04T04:16:03;10.10;97.00
10030;DHT22;5055;52.054;8.524;2022-11-04T04:18:41;10.10;97.00
10030;DHT22;5055;52.054;8.524;2022-11-04T04:21:17;10.20;97.00
10030;DHT22;5055;52.054;8.524;2022-11-04T04:23:48;10.20;97.00
10030;DHT22;5055;52.054;8.524;2022-11-04T04:26:51;10.20;97.00
10030;DHT22;5055;52.054;8.524;2022-11-04T04:29:40;10.20;97.00
10030;DHT22;5055;52.054;8.524;2022-11-04T04:32:10;10.20;97.00
10030;DHT22;5055;52.054;8.524;2022-11-04T04:34:41;10.20;97.00
10030;DHT22;5055;52.054;8.524;2022-11-04T04:37:13;10.10;97.00
10030;DHT22;5055;52.054;8.524;2022-11-04T04:39:46;10.00;97.00
10030;DHT22;5055;52.054;8.524;2022-11-04T04:42:34;10.00;97.00
10030;DHT22;5055;52.054;8.524;2022-11-04T04:45:21;10.00;97.00
10030;DHT22;5055;52.054;8.524;2022-11-04T04:47:50;10.00;97.00
10030;DHT22;5055;52.054;8.524;2022-11-04T04:50:20;10.00;97.00
10030;DHT22;5055;52.054;8.524;2022-11-04T04:52:50;10.00;97.00
10030;DHT22;5055;52.054;8.524;2022-11-04T04:55:20;10.00;97.00
10030;DHT22;5055;52.054;8.524;2022-11-04T04:57:48;10.10;97.00
10030;DHT22;5055;52.054;8.524;2022-11-04T05:00:18;10.10;97.00
10030;DHT22;5055;52.054;8.524;2022-11-04T05:02:47;10.10;97.00
10030;DHT22;5055;52.054;8.524;2022-11-04T05:05:16;10.20;97.00
10030;DHT22;5055;52.054;8.524;2022-11-04T05:07:46;10.20;97.00
10030;DHT22;5055;52.054;8.524;2022-11-04T05:10:16;10.20;97.00
10030;DHT22;5055;52.054;8.524;2022-11-04T05:12:44;10.20;97.00
10030;DHT22;5055;52.054;8.524;2022-11-04T05:15:27;10.20;97.00
10030;DHT22;5055;52.054;8.524;2022-11-04T05:17:56;10.30;97.00
10030;DHT22;5055;52.054;8.524;2022-11-04T05:20:25;10.30;97.00
10030;DHT22;5055;52.054;8.524;2022-11-04T05:22:56;10.30;97.00
10030;DHT22;5055;52.054;8.524;2022-11-04T05:25:26;10.30;97.00
10030;DHT22;5055;52.054;8.524;2022-11-04T05:27:54;10.30;97.00
10030;DHT22;5055;52.054;8.524;2022-11-04T05:30:22;10.30;97.00
10030;DHT22;5055;52.054;8.524;2022-11-04T05:32:50;10.30;97.00
10030;DHT22;5055;52.054;8.524;2022-11-04T05:35:18;10.30;97.00
10030;DHT22;5055;52.054;8.524;2022-11-04T05:37:46;10.30;97.00
10030;DHT22;5055;52.054;8.524;2022-11-04T05:40:17;10.30;97.00
10030;DHT22;5055;52.054;8.524;2022-11-04T05:42:45;10.30;97.00
10030;DHT22;5055;52.054;8.524;2022-11-04T05:45:14;10.20;97.00
10030;DHT22;5055;52.054;8.524;2022-11-04T05:47:42;10.20;97.00
10030;DHT22;5055;52.054;8.524;2022-11-04T05:50:12;10.20;97.00
10030;DHT22;5055;52.054;8.524;2022-11-04T05:52:40;10.20;97.00
10030;DHT22;5055;52.054;8.524;2022-11-04T05:55:08;10.20;97.00
10030;DHT22;5055;52.054;8.524;2022-11-04T05:57:38;10.20;97.00
10030;DHT22;5055;52.054;8.524;2022-11-04T06:00:08;10.20;97.00
10030;DHT22;5055;52.054;8.524;2022-11-04T06:02:37;10.10;97.00
10030;DHT22;5055;52.054;8.524;2022-11-04T06:05:06;10.10;97.00
10030;DHT22;5055;52.054;8.524;2022-11-04T06:07:34;10.10;97.00
10030;DHT22;5055;52.054;8.524;2022-11-04T06:10:03;10.10;97.00
10030;DHT22;5055;52.054;8.524;2022-11-04T06:12:32;10.10;97.00
10030;DHT22;5055;52.054;8.524;2022-11-04T06:15:02;10.10;97.00
10030;DHT22;5055;52.054;8.524;2022-11-04T06:17:30;10.10;97.00
10030;DHT22;5055;52.054;8.524;2022-11-04T06:19:58;10.10;97.00
10030;DHT22;5055;52.054;8.524;2022-11-04T06:22:26;10.10;97.00
10030;DHT22;5055;52.054;8.524;2022-11-04T06:24:54;10.10;97.00
10030;DHT22;5055;52.054;8.524;2022-11-04T06:27:23;10.10;97.00
10030;DHT22;5055;52.054;8.524;2022-11-04T06:29:51;10.10;97.00
10030;DHT22;5055;52.054;8.524;2022-11-04T06:32:20;10.10;97.00
10030;DHT22;5055;52.054;8.524;2022-11-04T06:34:49;10.10;97.00
10030;DHT22;5055;52.054;8.524;2022-11-04T06:37:17;10.10;97.00
10030;DHT22;5055;52.054;8.524;2022-11-04T06:39:45;10.10;97.00
10030;DHT22;5055;52.054;8.524;2022-11-04T06:42:13;10.00;97.00
10030;DHT22;5055;52.054;8.524;2022-11-04T06:44:41;10.00;97.00
10030;DHT22;5055;52.054;8.524;2022-11-04T06:47:09;10.10;97.00
10030;DHT22;5055;52.054;8.524;2022-11-04T06:49:39;10.00;97.00
10030;DHT22;5055;52.054;8.524;2022-11-04T06:52:07;10.00;97.00
10030;DHT22;5055;52.054;8.524;2022-11-04T06:54:35;10.00;97.00
10030;DHT22;5055;52.054;8.524;2022-11-04T06:57:03;10.00;97.00
10030;DHT22;5055;52.054;8.524;2022-11-04T06:59:32;10.00;97.00
10030;DHT22;5055;52.054;8.524;2022-11-04T07:02:00;10.00;97.00
10030;DHT22;5055;52.054;8.524;2022-11-04T07:04:28;10.00;97.00
10030;DHT22;5055;52.054;8.524;2022-11-04T07:06:58;10.00;97.00
10030;DHT22;5055;52.054;8.524;2022-11-04T07:09:26;10.00;97.00
10030;DHT22;5055;52.054;8.524;2022-11-04T07:11:54;10.00;97.00
10030;DHT22;5055;52.054;8.524;2022-11-04T07:14:22;10.00;97.00
10030;DHT22;5055;52.054;8.524;2022-11-04T07:16:51;10.00;97.00
10030;DHT22;5055;52.054;8.524;2022-11-04T07:19:19;10.00;97.00
10030;DHT22;5055;52.054;8.524;2022-11-04T07:21:47;10.00;97.00
10030;DHT22;5055;52.054;8.524;2022-11-04T07:24:17;10.00;97.00
10030;DHT22;5055;52.054;8.524;2022-11-04T07:26:45;10.00;97.00
10030;DHT22;5055;52.054;8.524;2022-11-04T07:29:13;10.00;97.00
10030;DHT22;5055;52.054;8.524;2022-11-04T07:31:42;10.00;97.00
10030;DHT22;5055;52.054;8.524;2022-11-04T07:34:10;10.00;97.00
10030;DHT22;5055;52.054;8.524;2022-11-04T07:36:39;10.00;97.00
10030;DHT22;5055;52.054;8.524;2022-11-04T07:39:07;10.00;97.00
10030;DHT22;5055;52.054;8.524;2022-11-04T07:41:36;10.10;97.00
10030;DHT22;5055;52.054;8.524;2022-11-04T07:44:05;10.10;97.00
10030;DHT22;5055;52.054;8.524;2022-11-04T07:46:33;10.10;97.00
10030;DHT22;5055;52.054;8.524;2022-11-04T07:49:01;10.10;97.00
10030;DHT22;5055;52.054;8.524;2022-11-04T07:51:30;10.10;97.00
10030;DHT22;5055;52.054;8.524;2022-11-04T07:53:58;10.20;97.00
10030;DHT22;5055;52.054;8.524;2022-11-04T07:56:27;10.20;97.00
10030;DHT22;5055;52.054;8.524;2022-11-04T07:58:56;10.30;97.00
10030;DHT22;5055;52.054;8.524;2022-11-04T08:01:25;10.50;97.00
10030;DHT22;5055;52.054;8.524;2022-11-04T08:03:53;10.60;97.00
10030;DHT22;5055;52.054;8.524;2022-11-04T08:06:21;10.90;97.00
10030;DHT22;5055;52.054;8.524;2022-11-04T08:08:49;11.10;97.00
10030;DHT22;5055;52.054;8.524;2022-11-04T08:11:21;11.20;97.00
10030;DHT22;5055;52.054;8.524;2022-11-04T08:13:50;11.40;97.00
10030;DHT22;5055;52.054;8.524;2022-11-04T08:16:22;11.50;97.00
10030;DHT22;5055;52.054;8.524;2022-11-04T08:18:57;11.60;97.00
10030;DHT22;5055;52.054;8.524;2022-11-04T08:21:31;11.70;97.00
10030;DHT22;5055;52.054;8.524;2022-11-04T08:23:59;11.60;97.00
10030;DHT22;5055;52.054;8.524;2022-11-04T08:26:29;11.70;97.00
10030;DHT22;5055;52.054;8.524;2022-11-04T08:28:58;11.80;97.00
10030;DHT22;5055;52.054;8.524;2022-11-04T08:31:29;12.00;97.00
10030;DHT22;5055;52.054;8.524;2022-11-04T08:33:57;12.20;97.00
10030;DHT22;5055;52.054;8.524;2022-11-04T08:36:28;12.50;97.00
10030;DHT22;5055;52.054;8.524;2022-11-04T08:38:57;12.70;97.00
10030;DHT22;5055;52.054;8.524;2022-11-04T08:41:27;13.00;97.00
10030;DHT22;5055;52.054;8.524;2022-11-04T08:43:57;13.20;97.00
10030;DHT22;5055;52.054;8.524;2022-11-04T08:46:32;13.40;97.00
10030;DHT22;5055;52.054;8.524;2022-11-04T08:49:01;13.70;97.00
10030;DHT22;5055;52.054;8.524;2022-11-04T08:51:38;13.80;97.00
10030;DHT22;5055;52.054;8.524;2022-11-04T08:54:07;13.50;97.00
10030;DHT22;5055;52.054;8.524;2022-11-04T08:56:37;13.20;97.00
10030;DHT22;5055;52.054;8.524;2022-11-04T08:59:05;12.90;97.00
10030;DHT22;5055;52.054;8.524;2022-11-04T09:01:36;12.90;97.00
10030;DHT22;5055;52.054;8.524;2022-11-04T09:04:04;12.90;97.00
10030;DHT22;5055;52.054;8.524;2022-11-04T09:06:35;12.80;97.00
10030;DHT22;5055;52.054;8.524;2022-11-04T09:09:04;12.60;97.00
10030;DHT22;5055;52.054;8.524;2022-11-04T09:11:37;12.40;97.00
10030;DHT22;5055;52.054;8.524;2022-11-04T09:14:10;12.20;97.00
10030;DHT22;5055;52.054;8.524;2022-11-04T09:16:40;12.00;97.00
10030;DHT22;5055;52.054;8.524;2022-11-04T09:19:08;12.00;97.00
10030;DHT22;5055;52.054;8.524;2022-11-04T09:21:37;11.90;97.00
10030;DHT22;5055;52.054;8.524;2022-11-04T09:24:05;11.90;97.00
10030;DHT22;5055;52.054;8.524;2022-11-04T09:26:34;11.90;97.00
10030;DHT22;5055;52.054;8.524;2022-11-04T09:29:03;11.80;97.00
10030;DHT22;5055;52.054;8.524;2022-11-04T09:31:32;11.80;97.00
10030;DHT22;5055;52.054;8.524;2022-11-04T09:34:02;11.80;97.00
10030;DHT22;5055;52.054;8.524;2022-11-04T09:36:30;11.70;97.00
10030;DHT22;5055;52.054;8.524;2022-11-04T09:38:58;11.60;97.00
10030;DHT22;5055;52.054;8.524;2022-11-04T09:44:30;11.70;97.00
10030;DHT22;5055;52.054;8.524;2022-11-04T09:47:20;11.60;97.00
10030;DHT22;5055;52.054;8.524;2022-11-04T09:49:53;11.60;97.00
10030;DHT22;5055;52.054;8.524;2022-11-04T09:52:27;11.60;97.00
10030;DHT22;5055;52.054;8.524;2022-11-04T09:55:01;11.60;97.00
10030;DHT22;5055;52.054;8.524;2022-11-04T09:57:32;11.60;97.00
10030;DHT22;5055;52.054;8.524;2022-11-04T10:00:00;11.70;97.00
10030;DHT22;5055;52.054;8.524;2022-11-04T10:02:55;11.80;97.00
10030;DHT22;5055;52.054;8.524;2022-11-04T10:05:42;11.90;97.00
10030;DHT22;5055;52.054;8.524;2022-11-04T10:08:34;12.00;97.00
10030;DHT22;5055;52.054;8.524;2022-11-04T10:11:14;12.00;97.00
10030;DHT22;5055;52.054;8.524;2022-11-04T10:14:02;12.10;97.00
10030;DHT22;5055;52.054;8.524;2022-11-04T10:16:48;12.10;97.00
10030;DHT22;5055;52.054;8.524;2022-11-04T10:19:29;12.10;97.00
10030;DHT22;5055;52.054;8.524;2022-11-04T10:22:10;12.20;97.00
10030;DHT22;5055;52.054;8.524;2022-11-04T10:24:42;12.40;97.00
10030;DHT22;5055;52.054;8.524;2022-11-04T10:27:16;12.50;97.00
10030;DHT22;5055;52.054;8.524;2022-11-04T10:29:48;12.90;97.00
10030;DHT22;5055;52.054;8.524;2022-11-04T10:32:20;13.40;97.00
10030;DHT22;5055;52.054;8.524;2022-11-04T10:34:52;13.50;97.00
10030;DHT22;5055;52.054;8.524;2022-11-04T10:37:24;13.70;97.00
10030;DHT22;5055;52.054;8.524;2022-11-04T10:39:59;13.40;97.00
10030;DHT22;5055;52.054;8.524;2022-11-04T10:42:28;13.70;97.00
10030;DHT22;5055;52.054;8.524;2022-11-04T10:44:56;13.90;97.00
10030;DHT22;5055;52.054;8.524;2022-11-04T10:47:34;13.90;97.00
10030;DHT22;5055;52.054;8.524;2022-11-04T10:50:36;14.00;97.00
10030;DHT22;5055;52.054;8.524;2022-11-04T10:53:13;13.80;97.00
10030;DHT22;5055;52.054;8.524;2022-11-04T10:55:49;13.50;97.00
10030;DHT22;5055;52.054;8.524;2022-11-04T10:58:22;13.20;97.00
10030;DHT22;5055;52.054;8.524;2022-11-04T11:00:51;13.10;97.00
10030;DHT22;5055;52.054;8.524;2022-11-04T11:03:28;13.10;97.00
10030;DHT22;5055;52.054;8.524;2022-11-04T11:06:21;13.10;97.00
10030;DHT22;5055;52.054;8.524;2022-11-04T11:08:53;13.00;97.00
10030;DHT22;5055;52.054;8.524;2022-11-04T11:11:41;13.00;97.00
10030;DHT22;5055;52.054;8.524;2022-11-04T11:14:19;13.00;97.00
10030;DHT22;5055;52.054;8.524;2022-11-04T11:17:18;13.00;97.00
10030;DHT22;5055;52.054;8.524;2022-11-04T11:19:55;13.10;97.00
10030;DHT22;5055;52.054;8.524;2022-11-04T11:22:29;12.90;97.00
10030;DHT22;5055;52.054;8.524;2022-11-04T11:25:20;12.90;97.00
10030;DHT22;5055;52.054;8.524;2022-11-04T11:27:51;12.90;97.00
10030;DHT22;5055;52.054;8.524;2022-11-04T11:30:23;13.00;97.00
10030;DHT22;5055;52.054;8.524;2022-11-04T11:32:54;13.10;97.00
10030;DHT22;5055;52.054;8.524;2022-11-04T11:35:27;13.10;97.00
10030;DHT22;5055;52.054;8.524;2022-11-04T11:37:57;13.10;97.00
10030;DHT22;5055;52.054;8.524;2022-11-04T11:40:30;13.20;97.00
10030;DHT22;5055;52.054;8.524;2022-11-04T11:43:01;13.30;97.00
10030;DHT22;5055;52.054;8.524;2022-11-04T11:45:31;13.30;97.00
10030;DHT22;5055;52.054;8.524;2022-11-04T11:48:00;13.30;97.00
10030;DHT22;5055;52.054;8.524;2022-11-04T11:50:29;13.20;97.00
10030;DHT22;5055;52.054;8.524;2022-11-04T11:53:13;13.20;97.00
10030;DHT22;5055;52.054;8.524;2022-11-04T11:55:50;13.10;97.00
10030;DHT22;5055;52.054;8.524;2022-11-04T11:58:29;13.20;97.00
10030;DHT22;5055;52.054;8.524;2022-11-04T12:01:24;13.00;97.00
10030;DHT22;5055;52.054;8.524;2022-11-04T12:03:55;12.90;97.00
10030;DHT22;5055;52.054;8.524;2022-11-04T12:06:48;12.90;97.00
10030;DHT22;5055;52.054;8.524;2022-11-04T12:09:42;12.80;97.00
10030;DHT22;5055;52.054;8.524;2022-11-04T12:12:31;12.80;97.00
10030;DHT22;5055;52.054;8.524;2022-11-04T12:15:13;12.80;97.00
10030;DHT22;5055;52.054;8.524;2022-11-04T12:17:56;12.70;97.00
10030;DHT22;5055;52.054;8.524;2022-11-04T12:20:36;12.70;97.00
10030;DHT22;5055;52.054;8.524;2022-11-04T12:23:15;13.30;97.00
10030;DHT22;5055;52.054;8.524;2022-11-04T12:25:52;14.20;97.00
10030;DHT22;5055;52.054;8.524;2022-11-04T12:28:28;15.00;97.00
10030;DHT22;5055;52.054;8.524;2022-11-04T12:31:10;15.60;97.00
10030;DHT22;5055;52.054;8.524;2022-11-04T12:33:46;15.40;97.00
10030;DHT22;5055;52.054;8.524;2022-11-04T12:36:26;15.30;97.00
10030;DHT22;5055;52.054;8.524;2022-11-04T12:39:22;15.90;97.00
10030;DHT22;5055;52.054;8.524;2022-11-04T12:42:04;16.20;97.00
10030;DHT22;5055;52.054;8.524;2022-11-04T12:45:07;16.60;97.00
10030;DHT22;5055;52.054;8.524;2022-11-04T12:47:39;17.00;97.00
10030;DHT22;5055;52.054;8.524;2022-11-04T12:50:31;17.30;97.00
10030;DHT22;5055;52.054;8.524;2022-11-04T12:53:36;17.50;97.00
10030;DHT22;5055;52.054;8.524;2022-11-04T12:56:09;18.10;97.00
10030;DHT22;5055;52.054;8.524;2022-11-04T12:59:03;18.20;97.00
10030;DHT22;5055;52.054;8.524;2022-11-04T13:01:44;17.70;97.00
10030;DHT22;5055;52.054;8.524;2022-11-04T13:04:16;17.50;97.00
10030;DHT22;5055;52.054;8.524;2022-11-04T13:06:50;17.90;97.00
10030;DHT22;5055;52.054;8.524;2022-11-04T13:09:28;18.80;97.00
10030;DHT22;5055;52.054;8.524;2022-11-04T13:12:02;19.50;97.00
10030;DHT22;5055;52.054;8.524;2022-11-04T13:14:39;20.00;97.00
10030;DHT22;5055;52.054;8.524;2022-11-04T13:17:13;20.30;97.00
10030;DHT22;5055;52.054;8.524;2022-11-04T13:19:46;20.60;97.00
10030;DHT22;5055;52.054;8.524;2022-11-04T13:22:19;20.20;97.00
10030;DHT22;5055;52.054;8.524;2022-11-04T13:24:53;19.60;97.00
10030;DHT22;5055;52.054;8.524;2022-11-04T13:27:25;19.00;97.00
10030;DHT22;5055;52.054;8.524;2022-11-04T13:30:04;18.10;97.00
10030;DHT22;5055;52.054;8.524;2022-11-04T13:32:39;16.90;97.00
10030;DHT22;5055;52.054;8.524;2022-11-04T13:35:14;16.10;97.00
10030;DHT22;5055;52.054;8.524;2022-11-04T13:37:52;15.50;97.00
10030;DHT22;5055;52.054;8.524;2022-11-04T13:40:26;15.00;97.00
10030;DHT22;5055;52.054;8.524;2022-11-04T13:43:11;14.70;97.00
10030;DHT22;5055;52.054;8.524;2022-11-04T13:46:00;14.60;97.00
10030;DHT22;5055;52.054;8.524;2022-11-04T13:48:31;14.30;97.00
10030;DHT22;5055;52.054;8.524;2022-11-04T13:51:03;14.20;97.00
10030;DHT22;5055;52.054;8.524;2022-11-04T13:53:43;14.10;97.00
10030;DHT22;5055;52.054;8.524;2022-11-04T13:56:29;14.10;97.00
10030;DHT22;5055;52.054;8.524;2022-11-04T13:59:05;14.30;97.00
10030;DHT22;5055;52.054;8.524;2022-11-04T14:01:34;14.50;97.00
10030;DHT22;5055;52.054;8.524;2022-11-04T14:04:27;14.60;97.00
10030;DHT22;5055;52.054;8.524;2022-11-04T14:06:58;14.30;97.00
10030;DHT22;5055;52.054;8.524;2022-11-04T14:09:48;14.20;97.00
10030;DHT22;5055;52.054;8.524;2022-11-04T14:12:29;14.00;97.00
10030;DHT22;5055;52.054;8.524;2022-11-04T14:15:14;13.80;97.00
10030;DHT22;5055;52.054;8.524;2022-11-04T14:18:02;13.70;97.00
10030;DHT22;5055;52.054;8.524;2022-11-04T14:21:00;13.50;97.00
10030;DHT22;5055;52.054;8.524;2022-11-04T14:23:29;13.40;97.00
10030;DHT22;5055;52.054;8.524;2022-11-04T14:25:59;13.30;97.00
10030;DHT22;5055;52.054;8.524;2022-11-04T14:28:29;13.20;97.00
10030;DHT22;5055;52.054;8.524;2022-11-04T14:30:59;13.30;97.00
10030;DHT22;5055;52.054;8.524;2022-11-04T14:33:33;13.70;97.00
10030;DHT22;5055;52.054;8.524;2022-11-04T14:36:21;14.30;97.00
10030;DHT22;5055;52.054;8.524;2022-11-04T14:38:53;14.70;97.00
10030;DHT22;5055;52.054;8.524;2022-11-04T14:41:30;14.80;97.00
10030;DHT22;5055;52.054;8.524;2022-11-04T14:44:06;14.70;97.00
10030;DHT22;5055;52.054;8.524;2022-11-04T14:46:40;14.50;97.00
10030;DHT22;5055;52.054;8.524;2022-11-04T14:49:37;14.20;97.00
10030;DHT22;5055;52.054;8.524;2022-11-04T14:52:19;14.00;97.00
10030;DHT22;5055;52.054;8.524;2022-11-04T14:54:48;13.90;97.00
10030;DHT22;5055;52.054;8.524;2022-11-04T14:57:20;13.70;97.00
10030;DHT22;5055;52.054;8.524;2022-11-04T14:59:49;13.50;97.00
10030;DHT22;5055;52.054;8.524;2022-11-04T15:02:21;13.40;97.00
10030;DHT22;5055;52.054;8.524;2022-11-04T15:04:55;13.20;97.00
10030;DHT22;5055;52.054;8.524;2022-11-04T15:07:34;13.10;97.00
10030;DHT22;5055;52.054;8.524;2022-11-04T15:10:17;13.00;97.00
10030;DHT22;5055;52.054;8.524;2022-11-04T15:12:47;12.90;97.00
10030;DHT22;5055;52.054;8.524;2022-11-04T15:15:31;12.80;97.00
10030;DHT22;5055;52.054;8.524;2022-11-04T15:18:04;12.70;97.00
10030;DHT22;5055;52.054;8.524;2022-11-04T15:20:36;12.60;97.00
10030;DHT22;5055;52.054;8.524;2022-11-04T15:23:12;12.60;97.00
10030;DHT22;5055;52.054;8.524;2022-11-04T15:25:46;12.50;97.00
10030;DHT22;5055;52.054;8.524;2022-11-04T15:28:17;12.50;97.00
10030;DHT22;5055;52.054;8.524;2022-11-04T15:30:58;12.40;97.00
10030;DHT22;5055;52.054;8.524;2022-11-04T15:33:30;12.40;97.00
10030;DHT22;5055;52.054;8.524;2022-11-04T15:36:00;12.40;97.00
10030;DHT22;5055;52.054;8.524;2022-11-04T15:38:31;12.30;97.00
10030;DHT22;5055;52.054;8.524;2022-11-04T15:41:00;12.30;97.00
10030;DHT22;5055;52.054;8.524;2022-11-04T15:43:48;12.30;97.00
10030;DHT22;5055;52.054;8.524;2022-11-04T15:46:17;12.20;97.00
10030;DHT22;5055;52.054;8.524;2022-11-04T15:49:04;12.20;97.00
10030;DHT22;5055;52.054;8.524;2022-11-04T15:51:38;12.20;97.00
10030;DHT22;5055;52.054;8.524;2022-11-04T15:54:19;12.10;97.00
10030;DHT22;5055;52.054;8.524;2022-11-04T15:56:51;12.20;97.00
10030;DHT22;5055;52.054;8.524;2022-11-04T15:59:24;12.10;97.00
10030;DHT22;5055;52.054;8.524;2022-11-04T16:01:53;12.10;97.00
10030;DHT22;5055;52.054;8.524;2022-11-04T16:04:23;12.10;97.00
10030;DHT22;5055;52.054;8.524;2022-11-04T16:07:19;12.10;97.00
10030;DHT22;5055;52.054;8.524;2022-11-04T16:09:50;12.00;97.00
10030;DHT22;5055;52.054;8.524;2022-11-04T16:12:27;11.70;97.00
10030;DHT22;5055;52.054;8.524;2022-11-04T16:14:57;11.50;97.00
10030;DHT22;5055;52.054;8.524;2022-11-04T16:17:27;11.30;97.00
10030;DHT22;5055;52.054;8.524;2022-11-04T16:19:58;11.10;97.00
10030;DHT22;5055;52.054;8.524;2022-11-04T16:22:30;11.00;97.00
10030;DHT22;5055;52.054;8.524;2022-11-04T16:25:03;11.00;97.00
10030;DHT22;5055;52.054;8.524;2022-11-04T16:27:33;10.90;97.00
10030;DHT22;5055;52.054;8.524;2022-11-04T16:30:07;10.80;97.00
10030;DHT22;5055;52.054;8.524;2022-11-04T16:32:41;10.70;97.00
10030;DHT22;5055;52.054;8.524;2022-11-04T16:35:18;10.60;97.00
10030;DHT22;5055;52.054;8.524;2022-11-04T16:37:51;10.50;97.00
10030;DHT22;5055;52.054;8.524;2022-11-04T16:40:23;10.50;97.00